Time;durP1;ratioP1;P1;durP2;ratioP2;P2;SDS_P1;SDS_P2;PMS_P1;PMS_P2;Temp;Humidity;BMP_temperature;BMP_pressure;BME280_temperature;BME280_humidity;BME280_pressure;Samples;Min_cycle;Max_cycle;Signal;HPM_P1;HPM_P2
2022/02/12 00:00:29;;;;;;;2.97;2.55;;;7.80;93.30;;;;;;5056097;28;20682;-86
2022/02/12 00:02:56;;;;;;;5.53;2.90;;;7.90;93.30;;;;;;5057178;28;20188;-89
2022/02/12 00:05:26;;;;;;;2.83;2.63;;;7.80;93.30;;;;;;5059815;28;20197;-87
2022/02/12 00:07:53;;;;;;;3.42;2.58;;;7.80;93.30;;;;;;5068750;28;20186;-89
2022/02/12 00:10:19;;;;;;;6.70;3.40;;;7.80;93.30;;;;;;5061393;28;20705;-87
2022/02/12 00:12:45;;;;;;;4.07;3.00;;;7.80;93.30;;;;;;5064211;28;20725;-86
2022/02/12 00:15:11;;;;;;;4.20;3.10;;;7.80;93.30;;;;;;5060096;28;20237;-89
2022/02/12 00:17:38;;;;;;;5.10;2.67;;;7.80;93.30;;;;;;5060145;28;20886;-88
2022/02/12 00:20:05;;;;;;;3.42;2.58;;;7.80;93.30;;;;;;5060213;28;20274;-87
2022/02/12 00:22:31;;;;;;;5.68;3.05;;;7.80;93.30;;;;;;5060448;28;20230;-87
2022/02/12 00:24:57;;;;;;;3.97;2.73;;;7.70;93.30;;;;;;5059665;28;20205;-89
2022/02/12 00:27:23;;;;;;;2.77;2.53;;;7.70;93.30;;;;;;5061044;28;20385;-88
2022/02/12 00:29:49;;;;;;;3.80;2.63;;;7.70;93.60;;;;;;5077805;28;20221;-87
2022/02/12 00:32:15;;;;;;;3.15;2.70;;;7.60;93.10;;;;;;5059471;28;20226;-86
2022/02/12 00:34:40;;;;;;;4.17;2.70;;;7.60;93.20;;;;;;5060520;28;20286;-86
2022/02/12 00:37:07;;;;;;;6.20;2.73;;;7.60;93.20;;;;;;5078692;28;20437;-87
2022/02/12 00:39:33;;;;;;;2.45;2.30;;;7.50;93.20;;;;;;5072657;28;20231;-89
2022/02/12 00:41:58;;;;;;;6.70;3.20;;;7.60;93.30;;;;;;5064148;28;20177;-88
2022/02/12 00:44:24;;;;;;;5.00;2.10;;;7.50;93.30;;;;;;5083184;28;20235;-88
2022/02/12 00:46:51;;;;;;;5.82;2.90;;;7.50;93.20;;;;;;5080999;28;20174;-87
2022/02/12 00:49:18;;;;;;;3.80;2.20;;;7.50;93.20;;;;;;5078285;28;20232;-87
2022/02/12 00:51:44;;;;;;;2.50;2.17;;;7.50;93.20;;;;;;5059400;28;20555;-89
2022/02/12 00:54:10;;;;;;;2.45;2.28;;;7.50;93.20;;;;;;5056083;28;20240;-87
2022/02/12 00:56:36;;;;;;;3.70;2.70;;;7.50;93.20;;;;;;5055872;28;20264;-88
2022/02/12 00:59:01;;;;;;;5.33;2.40;;;7.50;93.20;;;;;;5056032;28;20485;-89
2022/02/12 01:01:27;;;;;;;3.03;2.20;;;7.50;93.30;;;;;;5057463;28;20408;-86
2022/02/12 01:03:55;;;;;;;3.00;2.70;;;7.50;93.20;;;;;;5055831;28;20643;-87
2022/02/12 01:06:21;;;;;;;4.10;2.75;;;7.50;93.30;;;;;;5055792;28;20305;-89
2022/02/12 01:08:47;;;;;;;3.87;2.73;;;7.50;93.30;;;;;;5055870;28;20213;-86
2022/02/12 01:11:13;;;;;;;3.43;2.20;;;7.50;93.20;;;;;;5058071;28;20218;-89
2022/02/12 01:13:40;;;;;;;2.63;2.40;;;7.50;93.30;;;;;;5065036;28;20170;-91
2022/02/12 01:16:07;;;;;;;5.75;2.58;;;7.50;93.20;;;;;;5063437;28;20186;-91
2022/02/12 01:18:33;;;;;;;3.60;2.50;;;7.40;93.20;;;;;;5055394;28;20226;-92
2022/02/12 01:21:00;;;;;;;4.47;2.55;;;7.40;93.30;;;;;;5057068;28;20201;-89
2022/02/12 01:23:26;;;;;;;3.00;2.70;;;7.40;93.30;;;;;;5055661;28;20631;-89
2022/02/12 01:25:52;;;;;;;3.33;2.87;;;7.40;93.20;;;;;;5056641;28;20192;-87
2022/02/12 01:28:19;;;;;;;4.67;2.60;;;7.40;93.20;;;;;;5056979;28;20404;-89
2022/02/12 01:30:45;;;;;;;3.55;2.70;;;7.40;93.00;;;;;;5055529;28;20246;-92
2022/02/12 01:33:11;;;;;;;3.72;2.80;;;7.40;93.10;;;;;;5056743;28;20702;-91
2022/02/12 01:35:37;;;;;;;8.00;2.90;;;7.30;93.00;;;;;;5067464;28;20190;-90
2022/02/12 01:38:03;;;;;;;2.40;2.20;;;7.30;93.00;;;;;;5056331;28;20196;-91
2022/02/12 01:40:30;;;;;;;5.53;2.00;;;7.30;93.30;;;;;;5056376;28;20495;-91
2022/02/12 01:42:56;;;;;;;3.30;2.50;;;7.20;93.10;;;;;;5056566;28;20184;-91
2022/02/12 01:45:22;;;;;;;5.22;2.35;;;7.20;93.10;;;;;;5056174;28;20182;-89
2022/02/12 01:47:51;;;;;;;3.28;2.30;;;7.20;93.10;;;;;;5054942;28;20186;-91
2022/02/12 01:50:17;;;;;;;2.83;2.47;;;7.10;93.20;;;;;;5056037;28;20233;-89
2022/02/12 01:52:44;;;;;;;4.63;2.33;;;7.10;93.00;;;;;;5054944;28;20165;-87
2022/02/12 01:55:12;;;;;;;3.25;2.33;;;7.10;93.10;;;;;;5054734;28;20445;-87
2022/02/12 01:57:38;;;;;;;3.30;2.90;;;7.10;93.20;;;;;;5055202;28;20587;-89
2022/02/12 02:00:08;;;;;;;2.50;2.30;;;7.10;93.30;;;;;;5055893;28;20197;-87
2022/02/12 02:02:34;;;;;;;2.55;1.90;;;7.00;93.10;;;;;;5060404;28;20188;-89
2022/02/12 02:05:01;;;;;;;2.67;2.28;;;7.00;93.20;;;;;;5056625;28;20220;-89
2022/02/12 02:07:27;;;;;;;3.03;2.40;;;7.00;93.20;;;;;;5054957;28;20185;-88
2022/02/12 02:09:53;;;;;;;2.20;2.00;;;6.90;93.30;;;;;;5054521;28;20225;-88
2022/02/12 02:12:19;;;;;;;4.27;2.20;;;6.90;93.30;;;;;;5057569;28;20643;-89
2022/02/12 02:14:44;;;;;;;3.53;2.07;;;6.90;93.40;;;;;;5056246;28;20202;-89
2022/02/12 02:17:10;;;;;;;4.03;2.50;;;6.90;93.50;;;;;;5054854;28;20785;-87
2022/02/12 02:19:37;;;;;;;2.67;2.30;;;6.90;93.50;;;;;;5054583;28;20198;-86
2022/02/12 02:22:04;;;;;;;5.57;2.28;;;6.80;93.40;;;;;;5054145;28;20178;-86
2022/02/12 02:24:31;;;;;;;3.75;2.30;;;6.80;93.40;;;;;;5054708;28;20966;-87
2022/02/12 02:27:08;;;;;;;2.25;2.03;;;6.80;93.60;;;;;;5054192;28;20177;-89
2022/02/12 02:29:36;;;;;;;3.25;2.65;;;6.80;93.60;;;;;;5053615;28;20221;-88
2022/02/12 02:32:02;;;;;;;2.53;2.28;;;6.80;93.60;;;;;;5054110;28;20659;-89
2022/02/12 02:34:28;;;;;;;3.90;2.60;;;6.70;93.60;;;;;;5058644;28;20185;-88
2022/02/12 02:36:54;;;;;;;2.83;1.97;;;6.70;93.60;;;;;;5062083;28;20514;-85
2022/02/12 02:39:20;;;;;;;2.03;1.92;;;6.70;93.80;;;;;;5055193;28;20232;-87
2022/02/12 02:41:46;;;;;;;4.35;2.22;;;6.70;93.80;;;;;;5054473;28;20181;-90
2022/02/12 02:44:12;;;;;;;3.72;2.35;;;6.60;93.80;;;;;;5054550;28;20239;-92
2022/02/12 02:46:38;;;;;;;2.30;2.10;;;6.60;93.70;;;;;;5054167;28;20182;-87
2022/02/12 02:49:03;;;;;;;4.70;2.37;;;6.60;94.00;;;;;;5054151;28;20189;-89
2022/02/12 02:56:58;;;;;;;2.15;1.80;;;6.50;94.00;;;;;;5075274;28;20691;-89
2022/02/12 02:59:23;;;;;;;2.47;2.10;;;6.50;94.20;;;;;;5057438;28;20188;-86
2022/02/12 03:01:52;;;;;;;2.93;2.40;;;6.50;94.20;;;;;;5068046;28;20199;-88
2022/02/12 03:04:22;;;;;;;7.38;2.90;;;6.50;94.20;;;;;;5069535;28;20503;-87
2022/02/12 03:06:49;;;;;;;2.63;2.42;;;6.40;94.20;;;;;;5072881;28;20197;-88
2022/02/12 03:09:15;;;;;;;2.38;2.13;;;6.40;94.30;;;;;;5094904;28;20184;-87
2022/02/12 03:11:40;;;;;;;2.73;2.00;;;6.40;94.50;;;;;;5077606;28;20169;-88
2022/02/12 03:14:07;;;;;;;3.73;2.63;;;6.40;94.40;;;;;;5075554;28;20411;-87
2022/02/12 03:16:33;;;;;;;3.70;2.10;;;6.40;94.40;;;;;;5076604;28;20204;-86
2022/02/12 03:18:59;;;;;;;2.90;2.13;;;6.40;94.50;;;;;;5057926;28;20188;-89
2022/02/12 03:21:25;;;;;;;3.22;2.30;;;6.40;94.60;;;;;;5074530;28;20608;-87
2022/02/12 03:23:51;;;;;;;3.03;2.30;;;6.30;94.60;;;;;;5056828;28;20185;-87
2022/02/12 03:26:17;;;;;;;3.70;2.40;;;6.30;94.60;;;;;;5074271;28;20196;-91
2022/02/12 03:28:43;;;;;;;4.13;2.50;;;6.30;94.70;;;;;;5074282;28;20264;-91
2022/02/12 03:31:10;;;;;;;3.60;2.45;;;6.20;94.80;;;;;;5074644;28;20716;-90
2022/02/12 03:33:36;;;;;;;4.93;2.13;;;6.20;94.80;;;;;;5056492;28;20191;-92
2022/02/12 03:36:04;;;;;;;2.72;2.50;;;6.10;94.90;;;;;;5074243;28;20188;-90
2022/02/12 03:38:32;;;;;;;4.60;2.33;;;6.10;95.10;;;;;;5056360;28;20184;-91
2022/02/12 03:41:54;;;;;;;4.80;3.20;;;6.00;95.20;;;;;;5055920;28;20200;-91
2022/02/12 03:44:19;;;;;;;3.28;2.30;;;6.00;95.30;;;;;;5082524;28;20181;-89
2022/02/12 03:46:45;;;;;;;3.07;2.03;;;5.90;95.70;;;;;;5069903;28;20184;-86
2022/02/12 03:49:11;;;;;;;2.70;2.50;;;5.80;95.50;;;;;;5061522;28;20213;-88
2022/02/12 03:51:37;;;;;;;3.57;2.93;;;5.80;95.90;;;;;;5079360;28;20377;-88
2022/02/12 03:54:02;;;;;;;3.67;2.00;;;5.80;95.70;;;;;;5053031;28;20282;-89
2022/02/12 03:56:28;;;;;;;3.63;2.43;;;5.80;95.80;;;;;;5054541;28;20182;-87
2022/02/12 03:58:54;;;;;;;6.70;2.90;;;5.80;95.90;;;;;;5054306;28;20178;-89
2022/02/12 04:01:20;;;;;;;2.57;2.23;;;5.80;96.30;;;;;;5053246;28;20742;-89
2022/02/12 04:03:47;;;;;;;3.87;2.57;;;5.70;96.00;;;;;;5056737;28;20423;-86
2022/02/12 04:06:12;;;;;;;5.38;2.78;;;5.70;96.00;;;;;;5052999;28;20197;-89
2022/02/12 04:08:38;;;;;;;4.90;2.67;;;5.70;96.10;;;;;;5052773;28;20193;-88
2022/02/12 04:11:04;;;;;;;3.03;2.67;;;5.60;96.10;;;;;;5053969;28;20678;-89
2022/02/12 04:13:32;;;;;;;3.55;2.75;;;5.60;96.20;;;;;;5052893;28;20266;-87
2022/02/12 04:15:58;;;;;;;4.55;2.67;;;5.50;96.30;;;;;;5071244;28;20178;-87
2022/02/12 04:18:23;;;;;;;3.60;3.23;;;5.50;96.50;;;;;;5071946;28;20170;-88
2022/02/12 04:20:49;;;;;;;4.70;2.70;;;5.40;96.60;;;;;;5061960;28;20655;-89
2022/02/12 04:23:15;;;;;;;6.40;3.40;;;5.40;96.70;;;;;;5060724;28;20220;-87
2022/02/12 04:25:41;;;;;;;3.60;2.72;;;5.40;96.90;;;;;;5053224;28;20251;-87
2022/02/12 04:28:08;;;;;;;4.60;3.00;;;5.30;97.00;;;;;;5053842;28;20190;-88
2022/02/12 04:30:37;;;;;;;3.13;2.45;;;5.30;97.00;;;;;;5053457;28;20217;-89
2022/02/12 04:33:03;;;;;;;2.50;2.30;;;5.20;97.10;;;;;;5052370;28;20231;-92
2022/02/12 04:35:29;;;;;;;2.83;2.28;;;5.20;97.20;;;;;;5052629;28;20201;-89
2022/02/12 04:37:54;;;;;;;5.30;3.20;;;5.10;97.30;;;;;;5053508;28;20182;-89
2022/02/12 04:40:20;;;;;;;3.80;2.77;;;5.10;97.50;;;;;;5054223;28;20707;-89
2022/02/12 04:42:46;;;;;;;5.83;2.90;;;5.00;97.60;;;;;;5052628;28;20686;-88
2022/02/12 04:45:12;;;;;;;5.37;2.63;;;4.90;97.70;;;;;;5052524;28;20300;-89
2022/02/12 04:47:40;;;;;;;5.00;3.10;;;4.90;97.90;;;;;;5052529;28;20541;-89
2022/02/12 04:50:06;;;;;;;7.65;2.78;;;4.80;98.10;;;;;;5053847;28;20786;-87
2022/02/12 04:52:32;;;;;;;4.65;3.33;;;4.80;98.10;;;;;;5053944;28;20181;-87
2022/02/12 04:54:58;;;;;;;3.78;3.10;;;4.80;98.30;;;;;;5055761;28;20241;-89
2022/02/12 04:57:23;;;;;;;5.80;2.83;;;4.80;98.40;;;;;;5057877;28;20177;-89
2022/02/12 04:59:49;;;;;;;4.13;3.83;;;4.70;98.50;;;;;;5057520;28;20551;-87
2022/02/12 05:02:15;;;;;;;4.60;2.57;;;4.70;98.60;;;;;;5056165;28;20209;-89
2022/02/12 05:04:41;;;;;;;5.17;3.10;;;4.70;99.00;;;;;;5056296;28;20825;-87
2022/02/12 05:07:07;;;;;;;6.53;3.50;;;4.70;98.90;;;;;;5065886;28;20178;-87
2022/02/12 05:09:34;;;;;;;5.20;3.43;;;4.60;99.00;;;;;;5078020;28;20553;-87
2022/02/12 05:12:01;;;;;;;4.18;3.22;;;4.60;99.10;;;;;;5078034;28;20158;-88
2022/02/12 05:14:31;;;;;;;5.35;3.70;;;4.60;99.30;;;;;;5062545;28;20213;-89
2022/02/12 05:16:58;;;;;;;4.55;3.30;;;4.50;99.30;;;;;;5056295;28;20181;-86
2022/02/12 05:19:24;;;;;;;3.83;3.33;;;4.50;99.50;;;;;;5055617;28;20189;-86
2022/02/12 05:21:50;;;;;;;6.73;3.50;;;4.50;99.70;;;;;;5055743;28;20170;-87
2022/02/12 05:24:16;;;;;;;6.03;3.50;;;4.50;99.80;;;;;;5055657;28;20471;-89
2022/02/12 05:26:41;;;;;;;5.80;3.47;;;4.40;99.90;;;;;;5057204;28;20673;-87
2022/02/12 05:29:07;;;;;;;6.00;3.90;;;4.40;99.90;;;;;;5055397;28;20397;-89
2022/02/12 05:31:33;;;;;;;4.70;3.17;;;4.40;99.90;;;;;;5055618;28;20457;-87
2022/02/12 05:33:59;;;;;;;4.17;3.80;;;4.40;99.90;;;;;;5056392;28;20173;-88
2022/02/12 05:36:25;;;;;;;5.63;3.60;;;4.40;99.90;;;;;;5055724;28;20405;-89
2022/02/12 05:38:51;;;;;;;5.40;4.30;;;4.40;99.90;;;;;;5055589;28;20178;-89
2022/02/12 05:41:16;;;;;;;4.30;3.60;;;4.30;99.90;;;;;;5055612;28;20401;-88
2022/02/12 05:43:43;;;;;;;5.57;3.40;;;4.30;99.90;;;;;;5056437;28;20445;-90
2022/02/12 05:46:11;;;;;;;5.93;3.97;;;4.30;99.90;;;;;;5058075;28;20561;-89
2022/02/12 05:48:37;;;;;;;4.97;4.20;;;4.20;99.90;;;;;;5062730;28;20182;-91
2022/02/12 05:51:03;;;;;;;7.43;3.40;;;4.20;99.90;;;;;;5055917;28;20229;-92
2022/02/12 05:53:28;;;;;;;7.65;3.90;;;4.20;99.90;;;;;;5056227;28;20174;-90
2022/02/12 05:55:55;;;;;;;7.53;5.43;;;4.20;99.90;;;;;;5076178;28;20204;-91
2022/02/12 05:58:21;;;;;;;5.78;3.97;;;4.20;99.90;;;;;;5070029;28;20192;-89
2022/02/12 06:00:48;;;;;;;5.50;4.15;;;4.20;99.90;;;;;;5069198;28;20197;-91
2022/02/12 06:03:14;;;;;;;4.82;3.60;;;4.10;99.90;;;;;;5091364;28;20196;-91
2022/02/12 06:05:40;;;;;;;4.43;3.53;;;4.10;99.90;;;;;;5087510;28;20252;-91
2022/02/12 06:08:06;;;;;;;6.13;4.10;;;4.10;99.90;;;;;;5071629;28;20420;-91
2022/02/12 06:10:32;;;;;;;9.80;4.70;;;4.10;99.90;;;;;;5071988;28;20523;-90
2022/02/12 06:12:58;;;;;;;5.05;3.70;;;4.10;99.90;;;;;;5079437;28;20169;-89
2022/02/12 06:15:24;;;;;;;7.78;5.07;;;4.00;99.90;;;;;;5057689;28;20239;-89
2022/02/12 06:17:50;;;;;;;6.60;4.80;;;4.00;99.90;;;;;;5057667;28;20170;-91
2022/02/12 06:20:15;;;;;;;8.83;4.30;;;4.00;99.90;;;;;;5058096;28;20545;-90
2022/02/12 06:22:41;;;;;;;7.03;4.73;;;4.00;99.90;;;;;;5058187;28;20202;-89
2022/02/12 06:25:08;;;;;;;9.63;4.90;;;4.00;99.90;;;;;;5060982;28;20441;-89
2022/02/12 06:27:34;;;;;;;9.80;4.68;;;4.00;99.90;;;;;;5075594;28;20615;-88
2022/02/12 06:30:00;;;;;;;7.85;4.72;;;4.00;99.90;;;;;;5057807;28;20271;-89
2022/02/12 06:32:26;;;;;;;8.20;4.57;;;4.00;99.90;;;;;;5057330;28;20177;-89
2022/02/12 06:34:55;;;;;;;5.75;4.05;;;4.00;99.90;;;;;;5057273;28;20420;-89
2022/02/12 06:37:21;;;;;;;6.68;4.10;;;4.00;99.90;;;;;;5057481;28;20235;-89
2022/02/12 06:39:47;;;;;;;7.00;4.53;;;4.00;99.90;;;;;;5057661;28;20201;-91
2022/02/12 06:42:13;;;;;;;6.80;4.40;;;4.10;99.90;;;;;;5075108;28;20398;-89
2022/02/12 06:44:39;;;;;;;7.15;5.10;;;4.10;99.90;;;;;;5057112;28;20201;-91
2022/02/12 06:47:05;;;;;;;7.38;5.47;;;4.10;99.90;;;;;;5075165;28;20184;-91
2022/02/12 06:49:31;;;;;;;8.93;4.97;;;4.20;99.90;;;;;;5057247;28;20224;-89
2022/02/12 06:51:57;;;;;;;6.67;4.90;;;4.20;99.90;;;;;;5057752;28;20179;-88
2022/02/12 06:54:23;;;;;;;6.60;4.43;;;4.30;99.90;;;;;;5053460;28;20312;-91
2022/02/12 06:56:48;;;;;;;6.23;4.87;;;4.30;99.90;;;;;;5053654;28;20438;-88
2022/02/12 06:59:14;;;;;;;6.93;4.80;;;4.30;99.90;;;;;;5053872;28;20276;-89
2022/02/12 07:01:40;;;;;;;6.40;5.20;;;4.40;99.90;;;;;;5053978;28;20908;-91
2022/02/12 07:04:05;;;;;;;5.87;5.30;;;4.50;99.90;;;;;;5053575;28;20635;-89
2022/02/12 07:06:31;;;;;;;7.90;6.57;;;4.50;99.90;;;;;;5061787;28;20201;-89
2022/02/12 07:08:57;;;;;;;10.40;6.77;;;4.60;99.90;;;;;;5066495;28;20178;-89
2022/02/12 07:11:23;;;;;;;8.77;5.80;;;4.70;99.90;;;;;;5066300;28;20448;-91
2022/02/12 07:13:49;;;;;;;6.50;5.10;;;4.80;99.90;;;;;;5056681;28;20194;-89
2022/02/12 07:16:14;;;;;;;6.33;4.93;;;4.90;99.90;;;;;;5052918;28;20254;-87
2022/02/12 07:18:40;;;;;;;5.77;4.63;;;4.90;99.90;;;;;;5053586;28;20186;-87
2022/02/12 07:21:06;;;;;;;5.90;5.00;;;5.00;99.90;;;;;;5053568;28;20991;-89
2022/02/12 07:23:32;;;;;;;7.20;5.80;;;5.10;99.90;;;;;;5053792;28;20383;-88
2022/02/12 07:25:58;;;;;;;6.50;5.40;;;5.20;99.90;;;;;;5053414;28;20717;-91
2022/02/12 07:28:27;;;;;;;7.50;5.50;;;5.30;99.90;;;;;;5054400;28;20170;-92
2022/02/12 07:30:55;;;;;;;7.57;5.43;;;5.40;99.90;;;;;;5053187;28;20449;-92
2022/02/12 07:33:21;;;;;;;8.57;5.55;;;5.50;99.90;;;;;;5051698;28;20765;-89
2022/02/12 07:35:49;;;;;;;7.30;5.32;;;5.70;99.90;;;;;;5051630;28;20542;-91
2022/02/12 07:38:15;;;;;;;7.53;5.68;;;6.00;99.90;;;;;;5065443;28;20230;-89
2022/02/12 07:40:41;;;;;;;6.07;5.47;;;6.30;99.90;;;;;;5072982;28;20732;-89
2022/02/12 07:43:07;;;;;;;6.93;5.40;;;6.70;99.90;;;;;;5074491;28;20173;-89
2022/02/12 07:45:33;;;;;;;9.35;6.38;;;7.00;99.90;;;;;;5074494;28;20476;-91
2022/02/12 07:47:59;;;;;;;9.37;6.20;;;7.30;99.90;;;;;;5076265;28;20173;-89
2022/02/12 07:50:26;;;;;;;8.40;6.00;;;7.60;99.90;;;;;;5075332;28;20334;-89
2022/02/12 07:52:53;;;;;;;16.98;5.78;;;7.80;99.90;;;;;;5076372;28;20622;-87
2022/02/12 07:55:19;;;;;;;9.00;5.70;;;7.90;99.90;;;;;;5077471;28;20228;-87
2022/02/12 07:57:46;;;;;;;7.85;5.93;;;8.10;99.90;;;;;;5090121;28;20184;-88
2022/02/12 08:00:13;;;;;;;8.85;5.40;;;8.30;99.90;;;;;;5086770;28;20204;-88
2022/02/12 08:02:39;;;;;;;7.68;6.32;;;8.60;99.90;;;;;;5078659;28;20177;-87
2022/02/12 08:05:06;;;;;;;6.10;5.30;;;9.10;99.90;;;;;;5073007;28;20259;-89
2022/02/12 08:07:34;;;;;;;5.93;4.65;;;9.70;99.10;;;;;;5074236;28;20180;-89
2022/02/12 08:12:54;;;;;;;6.63;4.85;;;11.30;97.30;;;;;;5074209;28;20167;-87
2022/02/12 08:15:21;;;;;;;5.97;5.05;;;12.30;95.90;;;;;;5074177;28;20189;-90
2022/02/12 08:17:47;;;;;;;8.60;5.47;;;13.20;94.30;;;;;;5073834;28;20180;-89
2022/02/12 08:20:13;;;;;;;9.03;5.57;;;14.00;92.70;;;;;;5075495;28;20201;-89
2022/02/12 08:22:39;;;;;;;5.87;5.37;;;14.80;91.30;;;;;;5073875;28;20441;-90
2022/02/12 08:25:06;;;;;;;5.70;5.20;;;15.50;90.00;;;;;;5072645;28;20481;-90
2022/02/12 08:27:32;;;;;;;7.37;5.97;;;16.20;86.90;;;;;;5074272;28;20407;-91
2022/02/12 08:29:58;;;;;;;5.83;5.17;;;16.70;85.30;;;;;;5076339;28;20543;-92
2022/02/12 08:32:24;;;;;;;8.57;6.27;;;17.20;83.40;;;;;;5078476;28;20418;-89
2022/02/12 08:34:50;;;;;;;6.37;5.67;;;17.80;81.60;;;;;;5071740;28;20237;-90
2022/02/12 08:37:17;;;;;;;6.20;5.13;;;18.20;80.40;;;;;;5057717;28;20582;-86
2022/02/12 08:39:43;;;;;;;6.20;5.53;;;18.80;78.30;;;;;;5057210;28;20541;-87
2022/02/12 08:42:09;;;;;;;8.40;5.70;;;19.20;76.30;;;;;;5057958;28;20489;-89
2022/02/12 08:44:37;;;;;;;9.00;5.77;;;19.50;75.00;;;;;;5054503;28;20450;-87
2022/02/12 08:47:04;;;;;;;9.57;7.07;;;19.80;73.50;;;;;;5056984;28;20418;-89
2022/02/12 08:49:30;;;;;;;7.60;5.67;;;20.10;72.80;;;;;;5056419;28;20442;-91
2022/02/12 08:51:56;;;;;;;7.03;6.17;;;20.40;71.50;;;;;;5059351;28;20430;-89
2022/02/12 08:54:22;;;;;;;8.63;6.63;;;20.60;70.70;;;;;;5077154;28;20450;-89
2022/02/12 08:56:48;;;;;;;6.23;5.63;;;20.80;70.60;;;;;;5077823;28;20186;-89
2022/02/12 08:59:14;;;;;;;7.10;5.93;;;21.10;69.40;;;;;;5070326;28;20442;-88
2022/02/12 09:01:40;;;;;;;6.60;5.73;;;21.20;68.20;;;;;;5069633;28;20408;-89
2022/02/12 09:04:08;;;;;;;8.47;5.53;;;21.20;67.50;;;;;;5061706;28;20447;-91
2022/02/12 09:06:34;;;;;;;9.43;6.43;;;21.20;67.50;;;;;;5056449;28;20427;-89
2022/02/12 09:09:02;;;;;;;6.40;5.77;;;21.20;67.90;;;;;;5058381;28;20423;-90
2022/02/12 09:11:29;;;;;;;6.90;6.00;;;21.20;67.00;;;;;;5056361;28;20566;-88
2022/02/12 09:13:55;;;;;;;6.00;5.50;;;21.20;66.60;;;;;;5055784;28;20429;-88
2022/02/12 09:16:24;;;;;;;8.80;5.93;;;21.20;66.00;;;;;;5056108;28;20525;-89
2022/02/12 09:18:53;;;;;;;6.83;6.23;;;21.00;65.60;;;;;;5055678;28;20416;-88
2022/02/12 09:21:21;;;;;;;9.93;5.50;;;20.80;65.30;;;;;;5055968;28;20451;-88
2022/02/12 09:23:47;;;;;;;6.03;5.43;;;20.60;65.90;;;;;;5055788;28;20419;-90
2022/02/12 09:26:13;;;;;;;6.43;5.80;;;20.40;66.50;;;;;;5056105;28;20508;-90
2022/02/12 09:28:39;;;;;;;6.03;5.43;;;20.10;66.30;;;;;;5056329;28;20431;-91
2022/02/12 09:31:05;;;;;;;6.47;5.33;;;19.80;66.30;;;;;;5050331;28;20459;-88
2022/02/12 09:33:30;;;;;;;7.30;5.50;;;19.20;66.40;;;;;;5048570;28;20546;-89
2022/02/12 09:35:56;;;;;;;6.47;5.50;;;18.90;67.10;;;;;;5054562;28;20449;-88
2022/02/12 09:38:23;;;;;;;8.83;7.70;;;18.70;67.60;;;;;;5053942;28;20483;-89
2022/02/12 09:40:52;;;;;;;6.33;5.73;;;18.60;68.00;;;;;;5053400;28;20438;-91
2022/02/12 09:43:22;;;;;;;7.27;5.83;;;18.80;68.30;;;;;;5054144;28;20824;-91
2022/02/12 09:46:21;;;;;;;7.13;6.40;;;18.90;68.20;;;;;;5053963;28;20445;-88
2022/02/12 09:48:47;;;;;;;8.07;7.13;;;19.00;68.00;;;;;;5053307;28;20536;-90
2022/02/12 09:51:14;;;;;;;7.33;6.60;;;19.00;67.90;;;;;;5056810;28;20528;-87
2022/02/12 09:53:39;;;;;;;7.67;6.37;;;19.10;67.70;;;;;;5056343;28;20210;-89
2022/02/12 09:56:06;;;;;;;8.23;6.50;;;19.30;67.70;;;;;;5058245;28;20507;-89
2022/02/12 09:58:32;;;;;;;8.37;7.57;;;19.40;67.50;;;;;;5070538;28;20465;-90
2022/02/12 10:00:57;;;;;;;8.13;6.30;;;19.40;67.40;;;;;;5074195;28;20433;-90
2022/02/12 10:03:23;;;;;;;9.70;7.77;;;19.20;67.50;;;;;;5060053;28;20181;-87
2022/02/12 10:05:51;;;;;;;10.37;7.27;;;18.80;68.00;;;;;;5057368;28;20451;-91
2022/02/12 10:08:17;;;;;;;8.50;7.70;;;18.80;68.10;;;;;;5056581;28;20426;-89
2022/02/12 10:10:48;;;;;;;12.13;10.90;;;18.80;68.40;;;;;;5057259;28;20470;-88
2022/02/12 10:13:26;;;;;;;9.47;8.50;;;18.60;68.00;;;;;;5057843;28;20425;-91
2022/02/12 10:16:01;;;;;;;11.63;9.47;;;18.30;68.10;;;;;;5053672;28;20442;-90
2022/02/12 10:18:32;;;;;;;12.03;10.63;;;18.00;69.10;;;;;;5047978;28;20424;-88
2022/02/12 10:20:59;;;;;;;13.93;12.10;;;17.40;70.50;;;;;;5056463;28;20444;-91
2022/02/12 10:23:30;;;;;;;16.93;14.00;;;16.90;70.70;;;;;;5057925;28;20478;-89
2022/02/12 10:26:02;;;;;;;8.47;7.57;;;16.50;71.20;;;;;;5057501;28;20536;-91
2022/02/12 10:28:30;;;;;;;9.13;8.20;;;16.30;72.00;;;;;;5093273;28;20425;-91
2022/02/12 10:30:57;;;;;;;11.33;8.70;;;16.00;73.30;;;;;;5083129;28;20481;-88
2022/02/12 10:33:25;;;;;;;9.67;8.67;;;15.70;72.70;;;;;;5056288;28;20958;-89
2022/02/12 10:35:59;;;;;;;8.47;7.50;;;15.10;73.40;;;;;;5056633;28;20426;-89
2022/02/12 10:38:28;;;;;;;9.90;8.00;;;14.70;74.30;;;;;;5074732;28;20429;-89
2022/02/12 10:41:16;;;;;;;9.00;8.10;;;14.40;75.10;;;;;;5056336;28;20445;-88
2022/02/12 10:43:43;;;;;;;12.17;9.23;;;14.20;75.70;;;;;;5038410;28;20991;-91
2022/02/12 10:46:10;;;;;;;12.10;9.43;;;14.00;75.50;;;;;;5054661;28;20992;-91
2022/02/12 10:48:40;;;;;;;10.77;7.33;;;13.90;76.30;;;;;;5057089;28;20516;-91
2022/02/12 10:51:16;;;;;;;8.77;7.83;;;13.80;76.00;;;;;;5053194;28;20469;-89
2022/02/12 10:53:58;;;;;;;8.70;7.80;;;13.60;76.10;;;;;;5056052;28;20434;-91
2022/02/12 10:56:27;;;;;;;8.70;7.67;;;13.50;76.40;;;;;;5057907;28;20450;-91
2022/02/12 10:58:53;;;;;;;8.60;7.33;;;13.30;76.00;;;;;;5079940;28;20436;-88
2022/02/12 11:01:20;;;;;;;8.93;7.83;;;13.20;76.70;;;;;;5060981;28;20520;-90
2022/02/12 11:03:46;;;;;;;8.13;6.90;;;13.10;77.30;;;;;;5051290;28;20430;-88
2022/02/12 11:06:14;;;;;;;9.70;7.67;;;13.10;77.50;;;;;;5073006;28;20519;-89
2022/02/12 11:08:40;;;;;;;11.10;8.00;;;13.10;77.50;;;;;;5054901;28;20437;-92
2022/02/12 11:11:07;;;;;;;9.70;8.30;;;13.10;77.70;;;;;;5055485;28;20483;-92
2022/02/12 11:13:34;;;;;;;10.63;9.50;;;13.20;77.70;;;;;;5055967;28;20581;-91
2022/02/12 11:16:00;;;;;;;9.47;8.47;;;13.10;77.40;;;;;;5058731;28;20201;-94
2022/02/12 11:18:27;;;;;;;11.00;9.90;;;13.10;77.40;;;;;;5074518;28;20555;-89
2022/02/12 11:20:55;;;;;;;7.45;6.45;;;13.10;77.40;;;;;;5054034;28;20445;-89
2022/02/12 11:23:21;;;;;;;7.65;6.70;;;13.00;76.90;;;;;;5054362;28;20185;-89
2022/02/12 11:26:08;;;;;;;7.57;6.60;;;12.90;77.00;;;;;;5061277;28;20194;-91
2022/02/12 11:28:36;;;;;;;10.57;6.55;;;12.90;77.20;;;;;;5055885;28;20200;-92
2022/02/12 11:31:24;;;;;;;9.45;8.52;;;12.90;77.50;;;;;;5057038;28;20216;-91
2022/02/12 11:34:02;;;;;;;7.57;6.53;;;12.90;77.50;;;;;;5076783;28;20223;-88
2022/02/12 11:36:28;;;;;;;7.53;6.55;;;12.80;78.10;;;;;;5054479;28;20964;-89
2022/02/12 11:39:08;;;;;;;8.55;7.60;;;12.90;78.10;;;;;;5053115;28;20272;-91
2022/02/12 11:41:34;;;;;;;9.88;7.35;;;12.80;77.50;;;;;;5053168;28;20754;-89
2022/02/12 11:44:00;;;;;;;5.50;5.00;;;12.80;76.70;;;;;;5072380;28;20641;-89
2022/02/12 11:46:41;;;;;;;6.10;5.47;;;12.80;75.00;;;;;;5051994;28;20442;-90
2022/02/12 11:49:36;;;;;;;7.20;6.22;;;12.80;76.40;;;;;;5053322;28;20450;-89
2022/02/12 11:52:15;;;;;;;7.30;5.70;;;13.00;76.60;;;;;;5050764;28;20181;-92
2022/02/12 11:54:44;;;;;;;5.85;5.10;;;13.10;76.30;;;;;;5059351;28;20229;-91
2022/02/12 11:57:11;;;;;;;7.87;5.63;;;13.10;75.20;;;;;;5054574;28;20210;-89
2022/02/12 11:59:37;;;;;;;9.87;6.37;;;13.20;75.20;;;;;;5069094;28;21012;-89
2022/02/12 12:02:03;;;;;;;5.67;5.03;;;13.20;74.90;;;;;;5056136;28;20553;-89
2022/02/12 12:04:33;;;;;;;6.27;5.60;;;13.20;74.50;;;;;;5059251;28;20189;-89
2022/02/12 12:07:13;;;;;;;7.73;5.40;;;13.10;75.10;;;;;;5056953;28;20434;-89
2022/02/12 12:09:54;;;;;;;7.97;6.30;;;13.10;75.00;;;;;;5076150;28;20989;-88
2022/02/12 12:12:24;;;;;;;6.47;5.18;;;12.90;74.90;;;;;;5062760;28;20449;-90
2022/02/12 12:15:11;;;;;;;6.07;5.07;;;12.80;74.50;;;;;;5051359;28;20193;-89
2022/02/12 12:17:37;;;;;;;8.15;5.50;;;12.60;74.30;;;;;;5046231;28;20437;-89
2022/02/12 12:20:03;;;;;;;6.30;5.20;;;12.50;74.50;;;;;;5051930;28;20259;-91
2022/02/12 12:22:30;;;;;;;5.97;5.45;;;12.40;75.10;;;;;;5068730;28;20232;-89
2022/02/12 12:24:59;;;;;;;9.10;5.40;;;12.40;74.50;;;;;;5057022;28;20347;-89
2022/02/12 12:27:25;;;;;;;5.63;5.05;;;12.30;75.30;;;;;;5061305;28;20176;-90
2022/02/12 12:32:36;;;;;;;6.82;5.63;;;12.20;75.30;;;;;;5054772;28;20169;-89
2022/02/12 12:35:04;;;;;;;7.80;5.27;;;12.10;75.70;;;;;;5049950;28;20205;-88
2022/02/12 12:37:48;;;;;;;6.25;5.05;;;12.10;76.30;;;;;;5065835;28;20177;-91
2022/02/12 12:40:14;;;;;;;8.35;6.18;;;12.00;76.50;;;;;;5056550;28;20201;-91
2022/02/12 12:42:41;;;;;;;52.73;25.47;;;12.00;75.60;;;;;;5074791;28;20698;-88
2022/02/12 12:45:14;;;;;;;30.55;15.52;;;11.90;75.50;;;;;;5057065;28;20479;-89
2022/02/12 12:47:54;;;;;;;7.63;5.65;;;11.80;75.60;;;;;;5051639;28;20185;-88
2022/02/12 12:50:21;;;;;;;11.82;8.80;;;11.60;75.40;;;;;;5063781;28;20208;-91
2022/02/12 12:52:46;;;;;;;8.90;7.03;;;11.60;75.60;;;;;;5068804;28;20174;-89
2022/02/12 12:55:18;;;;;;;10.00;6.10;;;11.50;75.80;;;;;;5054997;28;20244;-90
2022/02/12 12:57:45;;;;;;;6.10;5.50;;;11.50;76.30;;;;;;5056262;28;20392;-90
2022/02/12 13:00:16;;;;;;;5.53;4.65;;;11.50;75.90;;;;;;5054986;28;20217;-91
2022/02/12 13:02:53;;;;;;;5.50;4.50;;;11.50;75.50;;;;;;5055506;28;20642;-89
2022/02/12 13:05:30;;;;;;;7.30;5.18;;;11.50;75.80;;;;;;5055712;28;20208;-91